APL Illinois — 9HA2040 — position and weather

sailwx.info

Track history (hours):
 
Tides and Currents Weather Stations Pressure Air Temp Water Temp Dewpoint Dewpoint Depression Visibility Wind Speed Wind Dir Waves Ship Positions

APL Illinois

Last reported at 2018-Apr-24 23:27 UTC. Time now 2018-Apr-25 05:10 UTC.
Position N 36°05' W 005°10'.

Length 304 m; draft 13.7 m.

Type: Ship (hazmat cat C). MMSI: 249851000.

Date/timePositionNaut miles runAvg speedWind from/ knotsBaromVisibWave heightAir tempDewpointWater temp
2018-Apr-24 23:27N 36°05' W 005°10'818.4
2018-Apr-24 23:00N 36°04' W 005°20'510.6
2018-Apr-24 22:30N 36°08' W 005°24'1 2.8
2018-Apr-24 22:00N 36°08' W 005°26'0 0.1
2018-Apr-24 21:28N 36°08' W 005°26'0 0.0
2018-Apr-24 20:58N 36°08' W 005°26'0 0.0
2018-Apr-24 20:28N 36°08' W 005°26'0 0.0
2018-Apr-24 19:58N 36°08' W 005°26'0 0.0
2018-Apr-24 19:28N 36°08' W 005°26'0 0.0
2018-Apr-24 18:58N 36°08' W 005°26'0 0.0
2018-Apr-24 18:28N 36°08' W 005°26'0 0.0
2018-Apr-24 17:58N 36°08' W 005°26'0 0.0
2018-Apr-24 17:28N 36°08' W 005°26'0 0.0
2018-Apr-24 16:52N 36°08' W 005°26'0 0.0
2018-Apr-24 16:28N 36°08' W 005°26'0 0.0
2018-Apr-24 15:58N 36°08' W 005°26'0 0.0
2018-Apr-24 15:28N 36°08' W 005°26'0 0.0
2018-Apr-24 14:58N 36°08' W 005°26'0 0.0
2018-Apr-24 14:28N 36°08' W 005°26'0 0.0
2018-Apr-24 13:58N 36°08' W 005°26'0 0.0
2018-Apr-24 13:28N 36°08' W 005°26'0 0.0
2018-Apr-24 12:58N 36°08' W 005°26'0 0.0
2018-Apr-24 12:28N 36°08' W 005°26'0 0.0
2018-Apr-24 11:58N 36°08' W 005°26'0 0.0
2018-Apr-24 11:28N 36°08' W 005°26'0 0.0
2018-Apr-24 10:58N 36°08' W 005°26'0 0.0
2018-Apr-24 10:25N 36°08' W 005°26'0 0.0
2018-Apr-24 09:58N 36°08' W 005°26'0 0.0
2018-Apr-24 09:28N 36°08' W 005°26'0 0.0
2018-Apr-24 08:58N 36°08' W 005°26'0 0.0
2018-Apr-24 08:28N 36°08' W 005°26'0 0.0
2018-Apr-24 07:58N 36°08' W 005°26'0 0.1
2018-Apr-24 07:30N 36°08' W 005°26'2 3.8
2018-Apr-24 06:52N 36°07' W 005°23'2 5.9
2018-Apr-24 06:30N 36°05' W 005°23'4 8.6
2018-Apr-24 06:00N 36°01' W 005°22'714.0
2018-Apr-24 05:30N 35°57' W 005°29'  
2018-Apr-22 01:04N 37°52' W 022°03'1514.7
2018-Apr-22 00:04N 37°54' W 022°22'115.0
2018-Apr-21 23:59N 37°54' W 022°23'714.6
2018-Apr-21 23:29N 37°55' W 022°33'2014.5
2018-Apr-21 22:05N 37°57' W 022°58'214.1
2018-Apr-21 21:58N 37°57' W 023°00'814.5
2018-Apr-21 21:26N 37°58' W 023°10'614.7
2018-Apr-21 21:01N 37°59' W 023°18'714.5
2018-Apr-21 20:30N 37°59' W 023°27'814.6
2018-Apr-21 19:57N 38°00' W 023°37'914.4
2018-Apr-21 19:21N 38°01' W 023°48'1114.2
2018-Apr-21 18:34N 38°02' W 024°02'115.3
2018-Apr-21 18:30N 38°02' W 024°03'714.5
2018-Apr-21 18:00N 38°03' W 024°13'714.4
2018-Apr-21 17:31N 38°04' W 024°22'714.6
2018-Apr-21 17:00N 38°04' W 024°31'714.8
2018-Apr-21 16:30N 38°05' W 024°40'714.8
2018-Apr-21 16:00N 38°06' W 024°49'815.0
2018-Apr-21 15:30N 38°07' W 024°59'714.9
2018-Apr-21 15:00N 38°07' W 025°08'914.6
2018-Apr-21 14:25N 38°08' W 025°19'614.8
2018-Apr-21 14:00N 38°09' W 025°27'814.7
2018-Apr-21 13:28N 38°10' W 025°37'714.5
2018-Apr-21 13:00N 38°10' W 025°45'714.2
2018-Apr-21 12:30N 38°10' W 025°55'714.2
2018-Apr-21 12:01N 38°09' W 026°03'3314.3
2018-Apr-21 09:43N 38°06' W 026°45'514.2
2018-Apr-21 09:22N 38°05' W 026°51'515.0
2018-Apr-21 09:00N 38°05' W 026°58'815.1
2018-Apr-21 08:30N 38°04' W 027°08'714.9
2018-Apr-21 08:00N 38°03' W 027°17'714.8
2018-Apr-21 07:31N 38°02' W 027°26'815.1
2018-Apr-21 07:00N 38°02' W 027°36'815.2
2018-Apr-21 06:30N 38°01' W 027°45'714.8
2018-Apr-21 06:00N 37°60' W 027°55'714.8
2018-Apr-21 05:30N 37°59' W 028°04'714.9
2018-Apr-21 05:00N 37°59' W 028°13'715.0
2018-Apr-21 04:30N 37°58' W 028°23'815.3
2018-Apr-21 04:00N 37°58' W 028°33'815.4
2018-Apr-21 03:30N 37°58' W 028°42'715.0
2018-Apr-21 03:00N 37°57' W 028°52'714.8
2018-Apr-21 02:30N 37°57' W 029°01'714.9
2018-Apr-21 02:00N 37°56' W 029°11'815.1
2018-Apr-21 01:30N 37°56' W 029°20'815.0
2018-Apr-21 01:00N 37°55' W 029°30'814.9
2018-Apr-21 00:30N 37°55' W 029°39'814.6
2018-Apr-20 23:57N 37°54' W 029°49'714.8
2018-Apr-20 23:30N 37°54' W 029°58'714.7
2018-Apr-20 23:00N 37°54' W 030°07'814.7
2018-Apr-20 22:28N 37°53' W 030°17'714.5
2018-Apr-20 22:00N 37°53' W 030°25'1014.8
2018-Apr-20 21:20N 37°52' W 030°38'815.0
2018-Apr-20 20:47N 37°52' W 030°48'714.7
2018-Apr-20 20:20N 37°52' W 030°57'614.9
2018-Apr-20 19:57N 37°51' W 031°04'1214.8
2018-Apr-20 19:11N 37°51' W 031°19'514.7
2018-Apr-20 18:49N 37°50' W 031°25'514.7
2018-Apr-20 18:27N 37°50' W 031°32'  
Track history (hours):
 
Tides and Currents Weather Stations Pressure Air Temp Water Temp Dewpoint Dewpoint Depression Visibility Wind Speed Wind Dir Waves Ship Positions

APL Illinois

Last reported at 2018-Apr-24 23:27 UTC. Time now 2018-Apr-25 05:10 UTC.
Position N 36°05' W 005°10'.

Length 304 m; draft 13.7 m.

Type: Ship (hazmat cat C). MMSI: 249851000.

Date/timePositionNaut miles runAvg speedWind from/ knotsBaromVisibWave heightAir tempDewpointWater temp
2018-Apr-24 23:27N 36°05' W 005°10'818.4
2018-Apr-24 23:00N 36°04' W 005°20'510.6
2018-Apr-24 22:30N 36°08' W 005°24'1 2.8
2018-Apr-24 22:00N 36°08' W 005°26'0 0.1
2018-Apr-24 21:28N 36°08' W 005°26'0 0.0
2018-Apr-24 20:58N 36°08' W 005°26'0 0.0
2018-Apr-24 20:28N 36°08' W 005°26'0 0.0
2018-Apr-24 19:58N 36°08' W 005°26'0 0.0
2018-Apr-24 19:28N 36°08' W 005°26'0 0.0
2018-Apr-24 18:58N 36°08' W 005°26'0 0.0
2018-Apr-24 18:28N 36°08' W 005°26'0 0.0
2018-Apr-24 17:58N 36°08' W 005°26'0 0.0
2018-Apr-24 17:28N 36°08' W 005°26'0 0.0
2018-Apr-24 16:52N 36°08' W 005°26'0 0.0
2018-Apr-24 16:28N 36°08' W 005°26'0 0.0
2018-Apr-24 15:58N 36°08' W 005°26'0 0.0
2018-Apr-24 15:28N 36°08' W 005°26'0 0.0
2018-Apr-24 14:58N 36°08' W 005°26'0 0.0
2018-Apr-24 14:28N 36°08' W 005°26'0 0.0
2018-Apr-24 13:58N 36°08' W 005°26'0 0.0
2018-Apr-24 13:28N 36°08' W 005°26'0 0.0
2018-Apr-24 12:58N 36°08' W 005°26'0 0.0
2018-Apr-24 12:28N 36°08' W 005°26'0 0.0
2018-Apr-24 11:58N 36°08' W 005°26'0 0.0
2018-Apr-24 11:28N 36°08' W 005°26'0 0.0
2018-Apr-24 10:58N 36°08' W 005°26'0 0.0
2018-Apr-24 10:25N 36°08' W 005°26'0 0.0
2018-Apr-24 09:58N 36°08' W 005°26'0 0.0
2018-Apr-24 09:28N 36°08' W 005°26'0 0.0
2018-Apr-24 08:58N 36°08' W 005°26'0 0.0
2018-Apr-24 08:28N 36°08' W 005°26'0 0.0
2018-Apr-24 07:58N 36°08' W 005°26'0 0.1
2018-Apr-24 07:30N 36°08' W 005°26'2 3.8
2018-Apr-24 06:52N 36°07' W 005°23'2 5.9
2018-Apr-24 06:30N 36°05' W 005°23'4 8.6
2018-Apr-24 06:00N 36°01' W 005°22'714.0
2018-Apr-24 05:30N 35°57' W 005°29'  
2018-Apr-22 01:04N 37°52' W 022°03'1514.7
2018-Apr-22 00:04N 37°54' W 022°22'115.0
2018-Apr-21 23:59N 37°54' W 022°23'714.6
2018-Apr-21 23:29N 37°55' W 022°33'2014.5
2018-Apr-21 22:05N 37°57' W 022°58'214.1
2018-Apr-21 21:58N 37°57' W 023°00'814.5
2018-Apr-21 21:26N 37°58' W 023°10'614.7
2018-Apr-21 21:01N 37°59' W 023°18'714.5
2018-Apr-21 20:30N 37°59' W 023°27'814.6
2018-Apr-21 19:57N 38°00' W 023°37'914.4
2018-Apr-21 19:21N 38°01' W 023°48'1114.2
2018-Apr-21 18:34N 38°02' W 024°02'115.3
2018-Apr-21 18:30N 38°02' W 024°03'714.5
2018-Apr-21 18:00N 38°03' W 024°13'714.4
2018-Apr-21 17:31N 38°04' W 024°22'714.6
2018-Apr-21 17:00N 38°04' W 024°31'714.8
2018-Apr-21 16:30N 38°05' W 024°40'714.8
2018-Apr-21 16:00N 38°06' W 024°49'815.0
2018-Apr-21 15:30N 38°07' W 024°59'714.9
2018-Apr-21 15:00N 38°07' W 025°08'914.6
2018-Apr-21 14:25N 38°08' W 025°19'614.8
2018-Apr-21 14:00N 38°09' W 025°27'814.7
2018-Apr-21 13:28N 38°10' W 025°37'714.5
2018-Apr-21 13:00N 38°10' W 025°45'714.2
2018-Apr-21 12:30N 38°10' W 025°55'714.2
2018-Apr-21 12:01N 38°09' W 026°03'3314.3
2018-Apr-21 09:43N 38°06' W 026°45'514.2
2018-Apr-21 09:22N 38°05' W 026°51'515.0
2018-Apr-21 09:00N 38°05' W 026°58'815.1
2018-Apr-21 08:30N 38°04' W 027°08'714.9
2018-Apr-21 08:00N 38°03' W 027°17'714.8
2018-Apr-21 07:31N 38°02' W 027°26'815.1
2018-Apr-21 07:00N 38°02' W 027°36'815.2
2018-Apr-21 06:30N 38°01' W 027°45'714.8
2018-Apr-21 06:00N 37°60' W 027°55'714.8
2018-Apr-21 05:30N 37°59' W 028°04'714.9
2018-Apr-21 05:00N 37°59' W 028°13'715.0
2018-Apr-21 04:30N 37°58' W 028°23'815.3
2018-Apr-21 04:00N 37°58' W 028°33'815.4
2018-Apr-21 03:30N 37°58' W 028°42'715.0
2018-Apr-21 03:00N 37°57' W 028°52'714.8
2018-Apr-21 02:30N 37°57' W 029°01'714.9
2018-Apr-21 02:00N 37°56' W 029°11'815.1
2018-Apr-21 01:30N 37°56' W 029°20'815.0
2018-Apr-21 01:00N 37°55' W 029°30'814.9
2018-Apr-21 00:30N 37°55' W 029°39'814.6
2018-Apr-20 23:57N 37°54' W 029°49'714.8
2018-Apr-20 23:30N 37°54' W 029°58'714.7
2018-Apr-20 23:00N 37°54' W 030°07'814.7
2018-Apr-20 22:28N 37°53' W 030°17'714.5
2018-Apr-20 22:00N 37°53' W 030°25'1014.8
2018-Apr-20 21:20N 37°52' W 030°38'815.0
2018-Apr-20 20:47N 37°52' W 030°48'714.7
2018-Apr-20 20:20N 37°52' W 030°57'614.9
2018-Apr-20 19:57N 37°51' W 031°04'1214.8
2018-Apr-20 19:11N 37°51' W 031°19'514.7
2018-Apr-20 18:49N 37°50' W 031°25'514.7
2018-Apr-20 18:27N 37°50' W 031°32'  

Dump ship's entire track history